createdAt,value
2023-02-19T00:00:06.172Z,98873.09
2023-02-19T00:02:39.421Z,98871.47
2023-02-19T00:05:05.946Z,98862.72
2023-02-19T00:07:35.429Z,98861.00
2023-02-19T00:10:01.994Z,98862.22
2023-02-19T00:12:28.867Z,98855.53
2023-02-19T00:14:57.080Z,98860.69
2023-02-19T00:17:23.509Z,98851.72
2023-02-19T00:19:49.932Z,98856.59
2023-02-19T00:22:16.338Z,98846.09
2023-02-19T00:24:47.848Z,98858.72
2023-02-19T00:27:15.593Z,98858.19
2023-02-19T00:29:42.009Z,98859.06
2023-02-19T00:32:12.554Z,98852.75
2023-02-19T00:34:42.436Z,98861.69
2023-02-19T00:37:09.293Z,98849.97
2023-02-19T00:39:35.703Z,98859.81
2023-02-19T00:42:02.309Z,98862.28
2023-02-19T00:44:28.807Z,98864.59
2023-02-19T00:46:55.306Z,98861.75
2023-02-19T00:49:22.500Z,98865.66
2023-02-19T00:51:49.660Z,98866.88
2023-02-19T00:54:16.275Z,98864.88
2023-02-19T00:56:42.790Z,98858.75
2023-02-19T00:59:09.460Z,98858.41
2023-02-19T01:01:35.931Z,98850.16
2023-02-19T01:04:02.835Z,98846.03
2023-02-19T01:06:32.520Z,98854.16
2023-02-19T01:08:58.987Z,98846.69
2023-02-19T01:11:25.524Z,98838.66
2023-02-19T01:13:51.953Z,98832.03
2023-02-19T01:16:19.976Z,98829.09
2023-02-19T01:18:47.656Z,98827.25
2023-02-19T01:21:18.208Z,98830.94
2023-02-19T01:23:45.970Z,98823.81
2023-02-19T01:26:13.424Z,98820.06
2023-02-19T01:28:39.848Z,98820.78
2023-02-19T01:31:07.511Z,98811.59
2023-02-19T01:33:34.481Z,98819.97
2023-02-19T01:36:05.108Z,98811.94
2023-02-19T01:38:31.729Z,98807.03
2023-02-19T01:40:59.005Z,98812.28
2023-02-19T01:43:25.675Z,98814.53
2023-02-19T01:45:52.198Z,98807.25
2023-02-19T01:48:29.760Z,98812.16
2023-02-19T01:51:02.480Z,98811.84
2023-02-19T01:53:29.508Z,98810.81
2023-02-19T01:55:56.408Z,98805.31
2023-02-19T01:58:23.542Z,98804.34
2023-02-19T02:00:53.107Z,98796.66
2023-02-19T02:03:19.680Z,98803.31
2023-02-19T02:05:48.922Z,98802.59
2023-02-19T02:08:34.220Z,98808.44
2023-02-19T02:11:00.649Z,98813.06
2023-02-19T02:13:27.113Z,98804.66
2023-02-19T02:15:59.667Z,98804.28
2023-02-19T02:18:29.297Z,98798.84
2023-02-19T02:21:01.873Z,98799.88
2023-02-19T02:23:42.697Z,98791.16
2023-02-19T02:26:27.731Z,98793.38
2023-02-19T02:29:13.295Z,98784.94
2023-02-19T02:31:41.472Z,98782.19
2023-02-19T02:34:12.964Z,98774.66
2023-02-19T02:36:40.829Z,98771.06
2023-02-19T02:39:10.275Z,98777.91
2023-02-19T02:41:44.489Z,98775.47
2023-02-19T02:44:11.072Z,98767.00
2023-02-19T02:46:38.676Z,98765.66
2023-02-19T02:49:05.773Z,98770.00
2023-02-19T02:51:41.922Z,98768.06
2023-02-19T02:54:35.314Z,98770.03
2023-02-19T02:57:06.961Z,98766.72
2023-02-19T02:59:37.520Z,98769.59
2023-02-19T03:02:15.056Z,98776.34
2023-02-19T03:05:04.247Z,98767.47
2023-02-19T03:07:32.356Z,98767.91
2023-02-19T03:09:58.918Z,98771.78
2023-02-19T03:12:44.155Z,98762.06
2023-02-19T03:15:29.432Z,98759.81
2023-02-19T03:18:28.784Z,98764.44
2023-02-19T03:20:55.875Z,98752.13
2023-02-19T03:23:42.822Z,98766.19
2023-02-19T03:26:10.358Z,98764.59
2023-02-19T03:29:08.390Z,98752.19
2023-02-19T03:31:36.270Z,98754.34
2023-02-19T03:34:03.981Z,98754.41
2023-02-19T03:36:32.908Z,98752.94
2023-02-19T03:39:03.784Z,98759.28
2023-02-19T03:41:35.461Z,98759.88
2023-02-19T03:44:11.599Z,98751.94
2023-02-19T03:46:42.425Z,98760.00
2023-02-19T03:49:24.958Z,98758.69
2023-02-19T03:51:53.005Z,98760.31
2023-02-19T03:54:58.031Z,98766.44
2023-02-19T03:57:45.514Z,98765.75
2023-02-19T04:00:14.022Z,98762.97
2023-02-19T04:02:44.650Z,98764.16
2023-02-19T04:05:14.253Z,98769.78
2023-02-19T04:07:41.901Z,98776.13
2023-02-19T04:10:09.284Z,98780.38
2023-02-19T04:12:40.438Z,98782.66
2023-02-19T04:15:07.550Z,98785.28
2023-02-19T04:18:09.494Z,98786.75
2023-02-19T04:20:39.593Z,98790.81
2023-02-19T04:23:06.007Z,98785.25
2023-02-19T04:25:32.392Z,98787.44
2023-02-19T04:27:58.922Z,98794.28
2023-02-19T04:30:27.597Z,98788.03
2023-02-19T04:32:54.057Z,98795.38
2023-02-19T04:35:20.467Z,98808.97
2023-02-19T04:37:46.904Z,98802.94
2023-02-19T04:40:13.716Z,98801.75
2023-02-19T04:42:40.115Z,98811.50
2023-02-19T04:45:06.698Z,98824.44
2023-02-19T04:47:33.112Z,98818.50
2023-02-19T04:49:59.602Z,98822.97
2023-02-19T04:52:26.020Z,98825.63
2023-02-19T04:54:52.418Z,98836.47
2023-02-19T04:57:18.880Z,98835.25
2023-02-19T04:59:46.091Z,98835.38
2023-02-19T05:02:12.518Z,98834.75
2023-02-19T05:04:41.986Z,98834.97
2023-02-19T05:07:08.418Z,98831.25
2023-02-19T05:09:34.854Z,98833.09
2023-02-19T05:12:02.114Z,98828.88
2023-02-19T05:14:28.488Z,98834.28
2023-02-19T05:16:55.002Z,98842.88
2023-02-19T05:19:21.519Z,98833.44
2023-02-19T05:21:48.982Z,98831.63
2023-02-19T05:24:15.403Z,98836.47
2023-02-19T05:26:44.051Z,98835.31
2023-02-19T05:29:14.813Z,98832.13
2023-02-19T05:31:41.446Z,98830.03
2023-02-19T05:34:07.925Z,98821.72
2023-02-19T05:36:34.508Z,98833.91
2023-02-19T05:39:06.325Z,98841.81
2023-02-19T05:41:32.890Z,98839.78
2023-02-19T05:43:59.303Z,98836.16
2023-02-19T05:46:27.333Z,98844.81
2023-02-19T05:48:53.809Z,98851.47
2023-02-19T05:51:21.648Z,98848.91
2023-02-19T05:53:48.284Z,98850.84
2023-02-19T05:56:32.785Z,98854.19
2023-02-19T05:58:59.569Z,98850.25
2023-02-19T06:01:26.804Z,98855.25
2023-02-19T06:03:57.107Z,98847.06
2023-02-19T06:06:24.332Z,98857.81
2023-02-19T06:08:50.879Z,98848.81
2023-02-19T06:11:18.401Z,98852.47
2023-02-19T06:13:44.814Z,98857.06
2023-02-19T06:16:11.492Z,98848.03
2023-02-19T06:18:40.346Z,98864.16
2023-02-19T06:21:11.080Z,98868.97
2023-02-19T06:23:38.042Z,98881.41
2023-02-19T06:26:08.584Z,98884.97
2023-02-19T06:28:35.030Z,98877.38
2023-02-19T06:31:04.991Z,98864.28
2023-02-19T06:33:34.189Z,98872.09
2023-02-19T06:36:04.080Z,98886.16
2023-02-19T06:38:30.562Z,98884.56
2023-02-19T06:41:00.642Z,98894.22
2023-02-19T06:43:27.060Z,98891.78
2023-02-19T06:45:53.490Z,98902.16
2023-02-19T06:48:20.309Z,98902.56
2023-02-19T06:50:46.688Z,98916.13
2023-02-19T06:53:13.081Z,98913.03
2023-02-19T06:55:40.401Z,98903.59
2023-02-19T06:58:07.809Z,98917.41
2023-02-19T07:00:34.696Z,98920.50
2023-02-19T07:03:01.258Z,98917.88
2023-02-19T07:05:27.706Z,98926.06
2023-02-19T07:07:54.168Z,98931.97
2023-02-19T07:10:20.694Z,98929.69
2023-02-19T07:12:54.614Z,98918.59
2023-02-19T07:15:23.995Z,98938.78
2023-02-19T07:17:50.418Z,98946.47
2023-02-19T07:20:16.836Z,98947.97
2023-02-19T07:22:43.267Z,98947.78
2023-02-19T07:25:09.737Z,98961.75
2023-02-19T07:27:36.164Z,98953.91
2023-02-19T07:30:02.629Z,98963.28
2023-02-19T07:32:29.196Z,98967.09
2023-02-19T07:34:55.867Z,98963.84
2023-02-19T07:37:22.265Z,98972.47
2023-02-19T07:39:49.008Z,98955.28
2023-02-19T07:42:19.297Z,98969.72
2023-02-19T07:44:45.688Z,98962.84
2023-02-19T07:47:12.096Z,98972.78
2023-02-19T07:49:38.650Z,98965.50
2023-02-19T07:52:05.272Z,98963.34
2023-02-19T07:54:31.756Z,98963.84
2023-02-19T07:56:58.260Z,98974.44
2023-02-19T07:59:24.656Z,98960.75
2023-02-19T08:02:09.757Z,98970.56
2023-02-19T08:04:36.235Z,98958.38
2023-02-19T08:07:02.634Z,98963.75
2023-02-19T08:09:29.050Z,98968.63
2023-02-19T08:12:15.104Z,98971.66
2023-02-19T08:14:41.486Z,98972.06
2023-02-19T08:17:07.929Z,98975.91
2023-02-19T08:19:34.398Z,98974.69
2023-02-19T08:22:00.953Z,98972.34
2023-02-19T08:24:27.343Z,98985.81
2023-02-19T08:26:53.975Z,98987.50
2023-02-19T08:29:20.639Z,98989.22
2023-02-19T08:31:47.212Z,99012.75
2023-02-19T08:34:13.926Z,99010.94
2023-02-19T08:36:40.401Z,99015.00
2023-02-19T08:39:06.802Z,99013.06
2023-02-19T08:41:33.246Z,99013.94
2023-02-19T08:43:59.630Z,98999.22
2023-02-19T08:46:26.085Z,98997.94
2023-02-19T08:48:52.594Z,98994.72
2023-02-19T08:51:19.046Z,99004.22
2023-02-19T08:53:45.543Z,99006.31
2023-02-19T08:56:15.681Z,99001.00
2023-02-19T08:58:42.337Z,99002.25
2023-02-19T09:01:10.757Z,99014.69
2023-02-19T09:03:37.666Z,99024.31
2023-02-19T09:06:04.169Z,99018.34
2023-02-19T09:08:31.311Z,99027.06
2023-02-19T09:10:58.722Z,99037.44
2023-02-19T09:13:25.429Z,99039.69
2023-02-19T09:15:51.909Z,99039.06
2023-02-19T09:18:18.344Z,99037.44
2023-02-19T09:20:44.743Z,99041.72
2023-02-19T09:23:11.292Z,99051.19
2023-02-19T09:25:37.780Z,99055.66
2023-02-19T09:28:04.284Z,99059.81
2023-02-19T09:31:15.679Z,99052.31
2023-02-19T09:33:46.012Z,99062.84
2023-02-19T09:36:12.850Z,99067.59
2023-02-19T09:38:40.524Z,99068.34
2023-02-19T09:41:30.561Z,99067.06
2023-02-19T09:44:01.471Z,99059.66
2023-02-19T09:46:30.345Z,99068.47
2023-02-19T09:49:03.353Z,99064.13
2023-02-19T09:51:29.981Z,99049.50
2023-02-19T09:53:56.590Z,99055.22
2023-02-19T09:56:23.027Z,99065.22
2023-02-19T09:58:53.513Z,99069.78
2023-02-19T10:01:23.297Z,99069.84
2023-02-19T10:03:49.831Z,99065.88
2023-02-19T10:06:26.948Z,99063.38
2023-02-19T10:09:07.353Z,99064.72
2023-02-19T10:11:34.082Z,99063.19
2023-02-19T10:14:27.337Z,99065.91
2023-02-19T10:16:53.952Z,99065.13
2023-02-19T10:19:20.559Z,99068.28
2023-02-19T10:21:47.103Z,99076.94
2023-02-19T10:24:16.348Z,99080.00
2023-02-19T10:26:43.943Z,99081.06
2023-02-19T10:29:10.511Z,99090.22
2023-02-19T10:31:37.200Z,99099.34
2023-02-19T10:34:04.504Z,99107.09
2023-02-19T10:36:45.272Z,99103.16
2023-02-19T10:39:29.452Z,99097.31
2023-02-19T10:44:45.095Z,99096.47
2023-02-19T10:47:15.510Z,99101.75
2023-02-19T10:49:46.291Z,99110.53
2023-02-19T10:52:22.318Z,99108.66
2023-02-19T10:54:52.969Z,99113.06
2023-02-19T10:57:27.482Z,99119.91
2023-02-19T10:59:57.993Z,99114.44
2023-02-19T11:02:24.552Z,99105.25
2023-02-19T11:05:05.955Z,99105.09
2023-02-19T11:07:32.585Z,99109.22
2023-02-19T11:09:58.992Z,99110.09
2023-02-19T11:12:29.639Z,99106.31
2023-02-19T11:14:56.178Z,99108.19
2023-02-19T11:17:29.523Z,99111.97
2023-02-19T11:19:56.246Z,99114.19
2023-02-19T11:22:29.158Z,99112.91
2023-02-19T11:24:58.509Z,99120.13
2023-02-19T11:27:25.791Z,99118.97
2023-02-19T11:29:52.189Z,99108.34
2023-02-19T11:32:29.663Z,99106.44
2023-02-19T11:35:25.525Z,99107.47
2023-02-19T11:37:56.570Z,99114.19
2023-02-19T11:40:43.406Z,99109.25
2023-02-19T11:43:13.784Z,99111.00
2023-02-19T11:45:52.266Z,99130.41
2023-02-19T11:48:22.482Z,99121.31
2023-02-19T11:50:54.841Z,99131.59
2023-02-19T11:53:24.937Z,99142.72
2023-02-19T11:56:12.224Z,99138.66
2023-02-19T11:58:47.868Z,99138.56
2023-02-19T12:01:36.672Z,99131.56
2023-02-19T12:04:27.764Z,99142.38
2023-02-19T12:07:09.726Z,99144.41
2023-02-19T12:09:36.110Z,99142.53
2023-02-19T12:12:08.801Z,99138.97
2023-02-19T12:14:54.684Z,99134.63
2023-02-19T12:17:43.009Z,99144.41
2023-02-19T12:20:21.876Z,99142.53
2023-02-19T12:22:54.756Z,99137.00
2023-02-19T12:25:40.097Z,99123.63
2023-02-19T12:28:25.435Z,99125.16
2023-02-19T12:31:20.005Z,99125.84
2023-02-19T12:33:59.908Z,99128.06
2023-02-19T12:36:29.419Z,99114.47
2023-02-19T12:39:17.568Z,99120.28
2023-02-19T12:41:54.300Z,99119.91
2023-02-19T12:44:37.902Z,99112.81
2023-02-19T12:47:04.488Z,99110.31
2023-02-19T12:49:30.908Z,99108.09
2023-02-19T12:52:00.965Z,99119.09
2023-02-19T12:54:33.475Z,99127.75
2023-02-19T12:57:01.287Z,99123.88
2023-02-19T12:59:27.675Z,99128.19
2023-02-19T13:01:59.445Z,99115.13
2023-02-19T13:04:38.350Z,99124.28
2023-02-19T13:07:17.092Z,99127.25
2023-02-19T13:09:43.512Z,99133.97
2023-02-19T13:12:28.779Z,99128.25
2023-02-19T13:14:59.777Z,99110.00
2023-02-19T13:17:31.740Z,99112.94
2023-02-19T13:20:15.159Z,99117.00
2023-02-19T13:23:01.718Z,99117.31
2023-02-19T13:25:32.402Z,99110.72
2023-02-19T13:28:04.409Z,99115.47
2023-02-19T13:30:48.355Z,99121.94
2023-02-19T13:33:14.899Z,99127.09
2023-02-19T13:36:05.885Z,99137.66
2023-02-19T13:38:42.418Z,99120.53
2023-02-19T13:41:17.348Z,99119.78
2023-02-19T13:43:46.848Z,99128.25
2023-02-19T13:46:14.165Z,99122.34
2023-02-19T13:48:41.245Z,99122.63
2023-02-19T13:51:21.604Z,99122.34
2023-02-19T13:53:48.218Z,99128.19
2023-02-19T13:56:30.101Z,99129.56
2023-02-19T13:58:57.064Z,99134.25
2023-02-19T14:01:41.840Z,99124.38
2023-02-19T14:04:10.210Z,99122.78
2023-02-19T14:06:55.743Z,99121.53
2023-02-19T14:09:34.166Z,99121.03
2023-02-19T14:12:10.198Z,99116.31
2023-02-19T14:14:37.651Z,99110.53
2023-02-19T14:17:05.688Z,99107.16
2023-02-19T14:19:41.250Z,99110.53
2023-02-19T14:22:26.077Z,99112.53
2023-02-19T14:24:53.206Z,99116.41
2023-02-19T14:27:21.027Z,99110.72
2023-02-19T14:29:47.435Z,99115.84
2023-02-19T14:32:16.823Z,99121.50
2023-02-19T14:34:44.750Z,99120.00
2023-02-19T14:37:18.433Z,99126.25
2023-02-19T14:39:45.379Z,99129.03
2023-02-19T14:42:17.179Z,99120.00
2023-02-19T14:44:48.967Z,99127.28
2023-02-19T14:47:17.083Z,99134.63
2023-02-19T14:49:44.371Z,99139.59
2023-02-19T14:52:32.151Z,99135.13
2023-02-19T14:55:03.951Z,99143.22
2023-02-19T14:57:31.313Z,99133.25
2023-02-19T14:59:58.940Z,99133.19
2023-02-19T15:02:28.616Z,99138.31
2023-02-19T15:04:55.074Z,99141.41
2023-02-19T15:07:31.899Z,99154.28
2023-02-19T15:10:04.894Z,99164.78
2023-02-19T15:12:46.064Z,99167.53
2023-02-19T15:15:16.785Z,99172.22
2023-02-19T15:17:43.191Z,99176.69
2023-02-19T15:20:10.703Z,99185.94
2023-02-19T15:22:39.095Z,99184.81
2023-02-19T15:25:05.747Z,99179.94
2023-02-19T15:27:32.997Z,99186.94
2023-02-19T15:29:59.813Z,99183.16
2023-02-19T15:32:26.959Z,99181.78
2023-02-19T15:35:03.306Z,99189.97
2023-02-19T15:37:30.327Z,99183.75
2023-02-19T15:39:57.088Z,99181.91
2023-02-19T15:42:24.596Z,99184.09
2023-02-19T15:45:00.185Z,99176.38
2023-02-19T15:47:33.286Z,99177.66
2023-02-19T15:50:07.972Z,99179.56
2023-02-19T15:52:40.617Z,99160.91
2023-02-19T15:55:25.342Z,99158.94
2023-02-19T15:58:04.307Z,99165.59
2023-02-19T16:00:33.931Z,99166.78
2023-02-19T16:03:00.377Z,99182.78
2023-02-19T16:05:27.576Z,99180.03
2023-02-19T16:08:12.274Z,99180.38
2023-02-19T16:10:38.787Z,99175.09
2023-02-19T16:13:08.184Z,99184.53
2023-02-19T16:15:34.749Z,99187.28
2023-02-19T16:18:01.226Z,99182.19
2023-02-19T16:20:28.468Z,99182.66
2023-02-19T16:23:02.097Z,99198.41
2023-02-19T16:25:42.693Z,99204.63
2023-02-19T16:28:22.540Z,99198.09
2023-02-19T16:31:02.352Z,99191.25
2023-02-19T16:33:43.310Z,99186.59
2023-02-19T16:36:22.462Z,99193.44
2023-02-19T16:39:15.347Z,99199.84
2023-02-19T16:42:08.164Z,99193.50
2023-02-19T16:44:35.940Z,99196.06
2023-02-19T16:47:10.872Z,99183.91
2023-02-19T16:49:45.174Z,99179.13
2023-02-19T16:52:28.503Z,99190.19
2023-02-19T16:54:55.070Z,99189.31
2023-02-19T16:57:21.730Z,99195.81
2023-02-19T16:59:52.715Z,99202.56
2023-02-19T17:02:20.273Z,99209.09
2023-02-19T17:04:46.813Z,99203.56
2023-02-19T17:07:14.235Z,99209.84
2023-02-19T17:09:47.430Z,99208.41
2023-02-19T17:12:14.719Z,99223.06
2023-02-19T17:14:44.547Z,99220.00
2023-02-19T17:17:10.995Z,99224.69
2023-02-19T17:19:39.182Z,99222.28
2023-02-19T17:22:05.713Z,99241.66
2023-02-19T17:24:32.177Z,99231.50
2023-02-19T17:26:59.081Z,99237.31
2023-02-19T17:29:25.792Z,99234.75
2023-02-19T17:31:52.332Z,99235.16
2023-02-19T17:34:18.851Z,99241.16
2023-02-19T17:36:45.547Z,99245.69
2023-02-19T17:39:17.963Z,99253.53
2023-02-19T17:41:44.423Z,99253.47
2023-02-19T17:44:11.039Z,99261.41
2023-02-19T17:46:39.608Z,99274.28
2023-02-19T17:49:07.374Z,99266.41
2023-02-19T17:51:34.628Z,99274.66
2023-02-19T17:54:01.322Z,99280.59
2023-02-19T17:56:28.191Z,99280.19
2023-02-19T17:58:56.024Z,99290.47
2023-02-19T18:01:22.485Z,99289.13
2023-02-19T18:03:48.901Z,99298.34
2023-02-19T18:06:15.344Z,99305.81
2023-02-19T18:08:48.194Z,99313.81
2023-02-19T18:11:14.619Z,99325.03
2023-02-19T18:13:41.039Z,99321.94
2023-02-19T18:16:07.466Z,99328.34
2023-02-19T18:18:34.216Z,99324.44
2023-02-19T18:21:03.916Z,99332.28
2023-02-19T18:23:32.545Z,99333.88
2023-02-19T18:26:00.120Z,99329.97
2023-02-19T18:28:27.226Z,99335.88
2023-02-19T18:30:53.820Z,99338.06
2023-02-19T18:33:20.444Z,99344.25
2023-02-19T18:35:50.316Z,99330.38
2023-02-19T18:38:16.762Z,99334.13
2023-02-19T18:40:46.151Z,99334.75
2023-02-19T18:43:12.570Z,99340.78
2023-02-19T18:45:39.684Z,99343.28
2023-02-19T18:48:06.238Z,99345.75
2023-02-19T18:50:34.730Z,99342.53
2023-02-19T18:53:01.244Z,99339.97
2023-02-19T18:55:27.645Z,99351.81
2023-02-19T18:57:54.085Z,99344.03
2023-02-19T19:00:22.737Z,99345.63
2023-02-19T19:02:51.432Z,99346.88
2023-02-19T19:05:20.852Z,99344.72
2023-02-19T19:07:47.251Z,99355.41
2023-02-19T19:10:14.716Z,99350.75
2023-02-19T19:12:41.373Z,99359.31
2023-02-19T19:15:07.938Z,99360.28
2023-02-19T19:17:34.439Z,99365.03
2023-02-19T19:20:00.857Z,99379.06
2023-02-19T19:22:27.272Z,99388.69
2023-02-19T19:24:53.736Z,99376.03
2023-02-19T19:27:20.323Z,99384.94
2023-02-19T19:29:47.860Z,99385.88
2023-02-19T19:32:14.439Z,99377.63
2023-02-19T19:34:43.742Z,99377.47
2023-02-19T19:37:10.164Z,99386.78
2023-02-19T19:43:31.407Z,99381.66
2023-02-19T19:45:58.020Z,99389.97
2023-02-19T19:48:24.630Z,99393.78
2023-02-19T19:50:50.997Z,99387.38
2023-02-19T19:53:17.866Z,99396.47
2023-02-19T19:55:44.531Z,99389.47
2023-02-19T19:58:11.004Z,99389.47
2023-02-19T20:00:37.443Z,99393.16
2023-02-19T20:03:03.932Z,99392.94
2023-02-19T20:05:30.349Z,99395.41
2023-02-19T20:07:56.757Z,99389.13
2023-02-19T20:10:23.310Z,99384.38
2023-02-19T20:12:49.870Z,99379.06
2023-02-19T20:15:19.624Z,99376.50
2023-02-19T20:17:46.347Z,99381.22
2023-02-19T20:20:13.005Z,99379.38
2023-02-19T20:22:39.706Z,99378.31
2023-02-19T20:25:06.369Z,99379.22
2023-02-19T20:27:32.855Z,99383.72
2023-02-19T20:29:59.266Z,99388.84
2023-02-19T20:32:25.678Z,99385.09
2023-02-19T20:34:52.115Z,99392.28
2023-02-19T20:37:18.964Z,99405.16
2023-02-19T20:39:45.889Z,99401.38
2023-02-19T20:42:16.724Z,99399.44
2023-02-19T20:44:43.739Z,99402.88
2023-02-19T20:47:10.352Z,99400.34
2023-02-19T20:49:36.728Z,99390.28
2023-02-19T20:52:06.511Z,99391.44
2023-02-19T20:54:33.691Z,99391.56
2023-02-19T20:57:01.341Z,99389.94
2023-02-19T20:59:30.681Z,99392.50
2023-02-19T21:01:57.640Z,99390.63
2023-02-19T21:04:24.050Z,99391.03
2023-02-19T21:06:52.204Z,99397.09
2023-02-19T21:09:22.933Z,99404.31
2023-02-19T21:11:49.676Z,99410.25
2023-02-19T21:14:16.243Z,99402.75
2023-02-19T21:16:42.737Z,99405.91
2023-02-19T21:19:09.255Z,99401.25
2023-02-19T21:21:35.841Z,99390.16
2023-02-19T21:24:02.277Z,99398.34
2023-02-19T21:26:35.815Z,99396.03
2023-02-19T21:29:02.704Z,99406.16
2023-02-19T21:31:35.692Z,99401.56
2023-02-19T21:34:03.531Z,99398.47
2023-02-19T21:36:30.238Z,99402.66
2023-02-19T21:38:56.822Z,99404.91
2023-02-19T21:41:24.714Z,99402.22
2023-02-19T21:43:51.086Z,99395.09
2023-02-19T21:46:18.006Z,99391.13
2023-02-19T21:48:44.457Z,99393.91
2023-02-19T21:51:10.895Z,99387.59
2023-02-19T21:53:37.459Z,99384.63
2023-02-19T21:56:03.909Z,99385.47
2023-02-19T21:58:30.314Z,99385.03
2023-02-19T22:00:58.046Z,99384.63
2023-02-19T22:03:26.314Z,99381.00
2023-02-19T22:05:52.835Z,99391.34
2023-02-19T22:08:19.292Z,99380.94
2023-02-19T22:10:45.763Z,99391.22
2023-02-19T22:13:12.151Z,99392.41
2023-02-19T22:15:38.520Z,99391.56
2023-02-19T22:18:05.055Z,99388.38
2023-02-19T22:20:31.622Z,99401.47
2023-02-19T22:22:58.007Z,99403.81
2023-02-19T22:25:24.415Z,99409.38
2023-02-19T22:27:50.834Z,99412.81
2023-02-19T22:30:17.391Z,99410.44
2023-02-19T22:32:43.912Z,99417.03
2023-02-19T22:35:10.382Z,99419.31
2023-02-19T22:37:36.746Z,99419.38
2023-02-19T22:40:03.208Z,99415.47
2023-02-19T22:42:29.649Z,99423.06
2023-02-19T22:44:56.024Z,99413.91
2023-02-19T22:47:22.425Z,99414.22
2023-02-19T22:49:48.810Z,99410.06
2023-02-19T22:52:15.286Z,99408.63
2023-02-19T22:54:41.712Z,99409.22
2023-02-19T22:57:08.137Z,99415.88
2023-02-19T22:59:34.601Z,99420.38
2023-02-19T23:02:01.002Z,99428.31
2023-02-19T23:04:27.429Z,99425.66
2023-02-19T23:06:53.942Z,99429.38
2023-02-19T23:09:20.312Z,99431.19
2023-02-19T23:11:47.267Z,99431.75
2023-02-19T23:14:15.256Z,99432.59
2023-02-19T23:16:41.754Z,99430.50
2023-02-19T23:19:11.390Z,99437.88
2023-02-19T23:21:41.788Z,99433.28
2023-02-19T23:24:08.163Z,99428.84
2023-02-19T23:26:34.580Z,99431.31
2023-02-19T23:29:01.057Z,99426.31
2023-02-19T23:31:27.680Z,99435.78
2023-02-19T23:33:54.879Z,99428.31
2023-02-19T23:36:23.773Z,99430.69
2023-02-19T23:38:50.196Z,99435.97
2023-02-19T23:41:16.920Z,99430.91
2023-02-19T23:43:43.494Z,99430.41
2023-02-19T23:46:13.254Z,99434.09
2023-02-19T23:48:39.856Z,99430.91
2023-02-19T23:51:06.485Z,99433.03
2023-02-19T23:53:32.906Z,99435.81
2023-02-19T23:55:59.360Z,99434.59
2023-02-19T23:58:25.754Z,99427.06
